createdAt,value
2018-04-14T00:01:32.255Z,8.25
2018-04-14T00:04:01.295Z,7.22
2018-04-14T00:06:29.662Z,7.03
2018-04-14T00:08:57.934Z,8.32
2018-04-14T00:11:26.189Z,7.78
2018-04-14T00:13:54.460Z,8.20
2018-04-14T00:16:22.821Z,7.50
2018-04-14T00:18:51.855Z,7.30
2018-04-14T00:21:20.131Z,6.80
2018-04-14T00:23:48.765Z,7.62
2018-04-14T00:26:17.794Z,6.80
2018-04-14T00:28:46.084Z,7.75
2018-04-14T00:31:14.486Z,7.60
2018-04-14T00:33:42.746Z,8.43
2018-04-14T00:36:11.019Z,8.75
2018-04-14T00:38:39.301Z,10.75
2018-04-14T00:41:07.568Z,10.50
2018-04-14T00:43:35.833Z,10.98
2018-04-14T00:46:04.114Z,11.02
2018-04-14T00:48:32.360Z,10.80
2018-04-14T00:51:00.636Z,10.15
2018-04-14T00:53:49.630Z,11.48
2018-04-14T00:56:17.922Z,10.50
2018-04-14T00:58:46.198Z,12.37
2018-04-14T01:01:14.504Z,12.50
2018-04-14T01:03:43.541Z,10.27
2018-04-14T01:06:11.830Z,10.27
2018-04-14T01:08:40.102Z,10.20
2018-04-14T01:11:08.374Z,10.20
2018-04-14T01:13:36.659Z,10.02
2018-04-14T01:16:04.929Z,9.40
2018-04-14T01:18:33.209Z,8.68
2018-04-14T01:21:01.524Z,9.50
2018-04-14T01:23:30.574Z,8.57
2018-04-14T01:25:58.828Z,8.00
2018-04-14T01:28:27.119Z,8.40
2018-04-14T01:30:55.355Z,7.53
2018-04-14T01:33:23.649Z,7.95
2018-04-14T01:35:52.186Z,7.55
2018-04-14T01:38:20.450Z,7.78
2018-04-14T01:40:48.757Z,7.97
2018-04-14T01:43:17.018Z,9.05
2018-04-14T01:45:46.066Z,9.18
2018-04-14T01:48:14.344Z,7.37
2018-04-14T01:50:42.620Z,7.70
2018-04-14T01:53:10.888Z,7.47
2018-04-14T01:55:39.172Z,6.90
2018-04-14T01:58:07.448Z,7.75
2018-04-14T02:00:35.714Z,7.62
2018-04-14T02:03:03.997Z,7.28
2018-04-14T02:05:32.247Z,7.75
2018-04-14T02:08:00.621Z,7.47
2018-04-14T02:10:28.895Z,7.28
2018-04-14T02:12:57.494Z,6.60
2018-04-14T02:15:25.767Z,5.43
2018-04-14T02:17:54.013Z,5.22
2018-04-14T02:20:22.293Z,3.90
2018-04-14T02:22:50.546Z,4.12
2018-04-14T02:25:19.583Z,4.15
2018-04-14T02:27:47.836Z,4.00
2018-04-14T02:30:16.109Z,3.33
2018-04-14T02:32:44.382Z,2.85
2018-04-14T02:35:13.414Z,3.42
2018-04-14T02:37:41.679Z,3.37
2018-04-14T02:40:09.950Z,3.22
2018-04-14T02:42:38.206Z,2.75
2018-04-14T02:45:06.481Z,3.47
2018-04-14T02:47:34.756Z,3.20
2018-04-14T02:50:03.036Z,3.05
2018-04-14T02:52:31.319Z,3.20
2018-04-14T02:57:34.145Z,2.40
2018-04-14T03:00:02.424Z,2.58
2018-04-14T03:02:30.678Z,3.25
2018-04-14T03:04:58.941Z,3.40
2018-04-14T03:07:27.220Z,3.90
2018-04-14T03:09:55.503Z,3.25
2018-04-14T03:12:23.800Z,4.40
2018-04-14T03:14:52.053Z,4.62
2018-04-14T03:17:20.322Z,4.25
2018-04-14T03:19:48.593Z,3.83
2018-04-14T03:22:16.876Z,3.20
2018-04-14T03:24:45.134Z,3.72
2018-04-14T03:27:13.529Z,2.97
2018-04-14T03:29:41.816Z,3.05
2018-04-14T03:32:10.077Z,3.55
2018-04-14T03:34:38.349Z,3.65
2018-04-14T03:37:06.627Z,3.15
2018-04-14T03:39:34.910Z,3.75
2018-04-14T03:42:03.560Z,3.00
2018-04-14T03:44:31.844Z,3.42
2018-04-14T03:47:00.105Z,3.00
2018-04-14T03:49:28.412Z,2.78
2018-04-14T03:51:56.676Z,2.58
2018-04-14T03:54:24.970Z,2.80
2018-04-14T03:56:53.235Z,2.90
2018-04-14T03:59:21.505Z,2.90
2018-04-14T04:01:49.820Z,2.35
2018-04-14T04:04:18.077Z,2.55
2018-04-14T04:06:46.329Z,2.12
2018-04-14T04:09:14.594Z,2.15
2018-04-14T04:11:42.861Z,2.10
2018-04-14T04:14:11.118Z,1.67
2018-04-14T04:16:40.169Z,2.10
2018-04-14T04:19:26.187Z,1.90
2018-04-14T04:22:13.195Z,1.90
2018-04-14T04:24:59.287Z,1.90
2018-04-14T04:27:27.630Z,1.58
2018-04-14T04:29:55.908Z,1.55
2018-04-14T04:32:24.154Z,1.70
2018-04-14T04:34:52.452Z,1.60
2018-04-14T04:37:20.699Z,1.80
2018-04-14T04:39:48.974Z,2.03
2018-04-14T04:42:17.256Z,1.80
2018-04-14T04:44:45.533Z,1.90
2018-04-14T04:47:13.803Z,2.33
2018-04-14T04:49:42.066Z,2.85
2018-04-14T04:52:11.478Z,2.85
2018-04-14T04:54:39.738Z,3.45
2018-04-14T04:57:08.801Z,3.75
2018-04-14T04:59:37.153Z,3.75
2018-04-14T05:02:05.446Z,4.37
2018-04-14T05:04:33.712Z,3.30
2018-04-14T05:07:02.008Z,2.95
2018-04-14T05:09:30.290Z,3.83
2018-04-14T05:11:58.554Z,3.45
2018-04-14T05:14:26.813Z,3.35
2018-04-14T05:16:55.133Z,3.90
2018-04-14T05:19:24.166Z,3.08
2018-04-14T05:21:52.479Z,4.12
2018-04-14T05:24:20.735Z,2.83
2018-04-14T05:26:49.022Z,3.78
2018-04-14T05:29:17.289Z,2.80
2018-04-14T05:31:45.634Z,3.95
2018-04-14T05:34:14.345Z,3.75
2018-04-14T05:36:42.618Z,2.58
2018-04-14T05:39:10.897Z,3.83
2018-04-14T05:41:39.150Z,3.90
2018-04-14T05:44:07.440Z,3.47
2018-04-14T05:46:35.762Z,2.53
2018-04-14T05:49:04.816Z,2.15
2018-04-14T05:51:33.125Z,2.45
2018-04-14T05:54:02.253Z,2.72
2018-04-14T05:56:30.525Z,2.30
2018-04-14T05:58:58.826Z,2.72
2018-04-14T06:01:27.097Z,4.05
2018-04-14T06:03:55.378Z,3.25
2018-04-14T06:06:23.651Z,3.60
2018-04-14T06:08:51.907Z,4.60
2018-04-14T06:11:20.196Z,4.20
2018-04-14T06:13:48.453Z,4.07
2018-04-14T06:16:16.866Z,3.35
2018-04-14T06:18:45.130Z,4.10
2018-04-14T06:21:13.425Z,4.00
2018-04-14T06:23:41.690Z,3.25
2018-04-14T06:26:09.977Z,3.10
2018-04-14T06:28:38.286Z,3.67
2018-04-14T06:31:07.340Z,4.50
2018-04-14T06:33:35.655Z,4.20
2018-04-14T06:36:04.695Z,4.50
2018-04-14T06:38:33.010Z,3.65
2018-04-14T06:41:01.291Z,3.70
2018-04-14T06:43:30.567Z,4.20
2018-04-14T06:45:58.886Z,3.55
2018-04-14T06:48:27.157Z,3.12
2018-04-14T06:50:55.451Z,3.37
2018-04-14T06:53:23.746Z,3.33
2018-04-14T06:55:52.040Z,3.37
2018-04-14T06:58:20.304Z,3.47
2018-04-14T07:00:48.610Z,2.80
2018-04-14T07:03:16.863Z,3.25
2018-04-14T07:05:45.229Z,3.67
2018-04-14T07:08:13.528Z,3.78
2018-04-14T07:10:42.046Z,3.20
2018-04-14T07:13:10.520Z,2.87
2018-04-14T07:15:39.579Z,3.40
2018-04-14T07:18:07.853Z,3.42
2018-04-14T07:20:36.913Z,3.17
2018-04-14T07:23:05.171Z,3.55
2018-04-14T07:25:33.463Z,3.00
2018-04-14T07:28:01.732Z,3.35
2018-04-14T07:30:30.005Z,2.62
2018-04-14T07:32:58.294Z,3.08
2018-04-14T07:35:26.584Z,3.00
2018-04-14T07:37:54.880Z,2.62
2018-04-14T07:40:23.487Z,3.17
2018-04-14T07:42:52.518Z,3.65
2018-04-14T07:45:20.787Z,3.35
2018-04-14T07:47:49.066Z,3.62
2018-04-14T07:50:17.322Z,3.28
2018-04-14T07:52:45.819Z,3.30
2018-04-14T07:55:14.198Z,3.55
2018-04-14T07:57:42.488Z,3.15
2018-04-14T08:00:10.766Z,3.60
2018-04-14T08:02:39.231Z,4.30
2018-04-14T08:05:07.778Z,4.43
2018-04-14T08:07:36.544Z,3.15
2018-04-14T08:10:06.020Z,3.20
2018-04-14T08:12:39.752Z,3.03
2018-04-14T08:15:08.958Z,3.67
2018-04-14T08:17:37.578Z,4.62
2018-04-14T08:20:06.468Z,4.18
2018-04-14T08:22:35.825Z,4.55
2018-04-14T08:25:04.484Z,4.20
2018-04-14T08:27:33.479Z,3.78
2018-04-14T08:30:02.180Z,3.87
2018-04-14T08:32:31.572Z,4.10
2018-04-14T08:35:00.896Z,4.40
2018-04-14T08:37:30.276Z,4.70
2018-04-14T08:39:59.005Z,3.75
2018-04-14T08:42:27.545Z,4.20
2018-04-14T08:44:56.888Z,4.80
2018-04-14T08:47:25.210Z,3.87
2018-04-14T08:49:53.600Z,4.80
2018-04-14T08:52:23.321Z,5.10
2018-04-14T08:54:51.955Z,3.50
2018-04-14T08:57:20.507Z,4.20
2018-04-14T08:59:49.106Z,3.85
2018-04-14T09:02:18.103Z,4.82
2018-04-14T09:04:46.417Z,3.60
2018-04-14T09:07:16.055Z,4.40
2018-04-14T09:09:44.746Z,3.80
2018-04-14T09:12:13.155Z,3.65
2018-04-14T09:14:41.965Z,3.42
2018-04-14T09:17:10.433Z,3.95
2018-04-14T09:19:39.325Z,3.97
2018-04-14T09:22:08.198Z,4.07
2018-04-14T09:24:37.030Z,2.73
2018-04-14T09:27:05.670Z,2.10
2018-04-14T09:29:34.160Z,1.90
2018-04-14T09:32:02.487Z,2.90
2018-04-14T09:34:31.540Z,4.10
2018-04-14T09:37:00.183Z,3.90
2018-04-14T09:39:28.959Z,1.73
2018-04-14T09:41:57.481Z,1.30
2018-04-14T09:44:27.089Z,1.20
2018-04-14T09:46:55.475Z,1.37
2018-04-14T09:49:23.830Z,1.10
2018-04-14T09:51:52.165Z,1.37
2018-04-14T09:54:20.466Z,1.40
2018-04-14T09:56:48.765Z,2.20
2018-04-14T09:59:17.066Z,1.43
2018-04-14T10:01:51.274Z,1.10
2018-04-14T10:04:19.592Z,1.00
2018-04-14T10:06:48.624Z,1.23
2018-04-14T10:09:16.900Z,0.90
2018-04-14T10:11:45.172Z,1.40
2018-04-14T10:14:13.457Z,1.00
2018-04-14T10:16:41.728Z,0.90
2018-04-14T10:19:10.030Z,1.40
2018-04-14T10:21:39.275Z,1.93
2018-04-14T10:24:07.565Z,1.30
2018-04-14T10:26:35.938Z,1.33
2018-04-14T10:29:04.217Z,1.50
2018-04-14T10:31:32.584Z,1.10
2018-04-14T10:34:01.097Z,1.20
2018-04-14T10:36:29.434Z,1.63
2018-04-14T10:38:57.714Z,2.00
2018-04-14T10:41:25.997Z,1.40
2018-04-14T10:43:54.261Z,0.93
2018-04-14T10:46:22.565Z,0.90
2018-04-14T10:48:50.942Z,1.20
2018-04-14T10:51:19.243Z,1.10
2018-04-14T10:53:47.591Z,0.90
2018-04-14T10:56:15.873Z,0.83
2018-04-14T10:58:44.203Z,1.10
2018-04-14T11:01:12.708Z,0.90
2018-04-14T11:03:41.017Z,1.17
2018-04-14T11:06:09.288Z,1.13
2018-04-14T11:08:37.598Z,1.20
2018-04-14T11:11:06.622Z,0.80
2018-04-14T11:13:34.909Z,0.80
2018-04-14T11:16:03.192Z,0.90
2018-04-14T11:18:31.557Z,0.77
2018-04-14T11:20:59.822Z,1.00
2018-04-14T11:23:28.130Z,0.80
2018-04-14T11:25:56.386Z,1.40
2018-04-14T11:28:24.741Z,0.80
2018-04-14T11:30:53.124Z,0.80
2018-04-14T11:33:21.395Z,0.80
2018-04-14T11:35:49.680Z,0.67
2018-04-14T11:38:17.946Z,0.63
2018-04-14T11:40:46.244Z,0.63
2018-04-14T11:43:14.548Z,0.70
2018-04-14T11:45:42.821Z,1.40
2018-04-14T11:48:11.881Z,0.70
2018-04-14T11:50:40.259Z,1.00
2018-04-14T11:53:08.517Z,1.00
2018-04-14T11:55:36.807Z,0.67
2018-04-14T11:58:05.120Z,1.53
2018-04-14T12:00:33.418Z,0.83
2018-04-14T12:03:02.453Z,0.80
2018-04-14T12:05:30.737Z,0.70
2018-04-14T12:07:59.055Z,0.80
2018-04-14T12:10:27.352Z,0.90
2018-04-14T12:12:55.633Z,0.67
2018-04-14T12:15:23.969Z,0.70
2018-04-14T12:17:52.324Z,0.70
2018-04-14T12:20:20.659Z,0.70
2018-04-14T12:22:49.753Z,0.67
2018-04-14T12:25:18.844Z,0.90
2018-04-14T12:27:47.899Z,0.77
2018-04-14T12:30:16.164Z,0.70
2018-04-14T12:32:44.437Z,0.60
2018-04-14T12:35:12.786Z,0.60
2018-04-14T12:37:41.038Z,0.77
2018-04-14T12:40:10.098Z,0.80
2018-04-14T12:42:38.984Z,0.80
2018-04-14T12:45:07.249Z,1.13
2018-04-14T12:47:35.614Z,0.70
2018-04-14T12:50:03.874Z,0.70
2018-04-14T12:52:32.157Z,0.90
2018-04-14T12:55:00.439Z,0.90
2018-04-14T12:57:28.721Z,0.70
2018-04-14T12:59:57.041Z,0.77
2018-04-14T13:02:26.176Z,0.70
2018-04-14T13:04:54.460Z,0.80
2018-04-14T13:07:22.738Z,0.80
2018-04-14T13:09:51.409Z,0.63
2018-04-14T13:12:19.677Z,0.93
2018-04-14T13:14:47.986Z,0.60
2018-04-14T13:17:16.245Z,0.73
2018-04-14T13:19:44.572Z,0.80
2018-04-14T13:22:13.612Z,0.70
2018-04-14T13:24:41.913Z,0.70
2018-04-14T13:27:10.172Z,0.90
2018-04-14T13:29:38.996Z,1.03
2018-04-14T13:32:07.467Z,0.90
2018-04-14T13:34:35.811Z,0.80
2018-04-14T13:37:04.099Z,0.90
2018-04-14T13:39:32.405Z,0.67
2018-04-14T13:42:00.673Z,0.70
2018-04-14T13:44:28.981Z,0.63
2018-04-14T13:46:57.283Z,0.83
2018-04-14T13:49:25.545Z,0.67
2018-04-14T13:51:53.878Z,0.73
2018-04-14T13:54:22.209Z,0.70
2018-04-14T13:56:50.955Z,0.70
2018-04-14T13:59:20.014Z,0.90
2018-04-14T14:01:48.293Z,0.70
2018-04-14T14:04:16.564Z,0.73
2018-04-14T14:06:44.884Z,0.80
2018-04-14T14:09:13.261Z,0.60
2018-04-14T14:11:41.541Z,1.00
2018-04-14T14:14:09.829Z,0.50
2018-04-14T14:16:38.100Z,0.60
2018-04-14T14:19:06.364Z,0.67
2018-04-14T14:21:34.658Z,0.70
2018-04-14T14:24:02.937Z,0.90
2018-04-14T14:26:31.222Z,0.70
2018-04-14T14:28:59.802Z,0.60
2018-04-14T14:31:28.157Z,0.60
2018-04-14T14:33:56.429Z,0.70
2018-04-14T14:36:24.726Z,0.80
2018-04-14T14:38:52.993Z,0.60
2018-04-14T14:41:21.290Z,0.90
2018-04-14T14:43:49.544Z,0.70
2018-04-14T14:46:17.830Z,0.70
2018-04-14T14:48:46.130Z,0.80
2018-04-14T14:51:14.436Z,0.60
2018-04-14T14:53:43.474Z,0.90
2018-04-14T14:56:11.756Z,0.90
2018-04-14T14:58:40.023Z,0.70
2018-04-14T15:01:08.380Z,0.70
2018-04-14T15:03:36.654Z,0.90
2018-04-14T15:06:04.933Z,0.80
2018-04-14T15:08:33.234Z,0.60
2018-04-14T15:11:01.704Z,0.70
2018-04-14T15:13:29.998Z,0.60
2018-04-14T15:15:58.253Z,0.70
2018-04-14T15:18:26.619Z,0.60
2018-04-14T15:20:54.887Z,0.77
2018-04-14T15:23:23.173Z,1.20
2018-04-14T15:25:51.462Z,0.70
2018-04-14T15:28:19.808Z,0.67
2018-04-14T15:30:48.091Z,0.50
2018-04-14T15:33:16.387Z,0.60
2018-04-14T15:35:44.645Z,0.70
2018-04-14T15:38:12.945Z,0.60
2018-04-14T15:40:41.210Z,0.60
2018-04-14T15:43:09.496Z,0.70
2018-04-14T15:45:37.959Z,0.63
2018-04-14T15:48:06.553Z,0.77
2018-04-14T15:50:34.824Z,0.70
2018-04-14T15:53:03.083Z,0.63
2018-04-14T15:55:31.378Z,0.60
2018-04-14T15:57:59.651Z,0.60
2018-04-14T16:00:27.949Z,0.80
2018-04-14T16:02:56.259Z,0.60
2018-04-14T16:05:25.429Z,0.60
2018-04-14T16:07:53.737Z,0.70
2018-04-14T16:10:22.774Z,0.60
2018-04-14T16:12:51.044Z,0.70
2018-04-14T16:15:19.300Z,0.70
2018-04-14T16:17:47.599Z,0.70
2018-04-14T16:20:15.867Z,0.70
2018-04-14T16:22:44.142Z,0.60
2018-04-14T16:25:12.433Z,0.60
2018-04-14T16:27:40.789Z,0.60
2018-04-14T16:30:09.421Z,0.80
2018-04-14T16:32:37.732Z,0.60
2018-04-14T16:35:06.010Z,0.83
2018-04-14T16:37:34.493Z,0.60
2018-04-14T16:40:02.785Z,0.73
2018-04-14T16:42:31.062Z,0.60
2018-04-14T16:44:59.353Z,0.70
2018-04-14T16:47:28.026Z,1.03
2018-04-14T16:49:56.297Z,0.80
2018-04-14T16:52:24.557Z,1.00
2018-04-14T16:54:52.838Z,0.70
2018-04-14T16:57:21.155Z,0.77
2018-04-14T16:59:49.471Z,0.80
2018-04-14T17:02:18.696Z,0.70
2018-04-14T17:04:46.981Z,0.80
2018-04-14T17:07:15.340Z,0.70
2018-04-14T17:09:43.628Z,0.80
2018-04-14T17:12:12.067Z,0.80
2018-04-14T17:14:40.356Z,0.87
2018-04-14T17:17:08.651Z,1.07
2018-04-14T17:19:36.934Z,1.00
2018-04-14T17:22:05.225Z,1.00
2018-04-14T17:24:33.509Z,1.37
2018-04-14T17:27:01.821Z,0.80
2018-04-14T17:29:30.850Z,0.80
2018-04-14T17:31:59.134Z,0.80
2018-04-14T17:34:27.506Z,0.93
2018-04-14T17:36:55.783Z,0.70
2018-04-14T17:39:24.043Z,0.90
2018-04-14T17:41:52.337Z,0.80
2018-04-14T17:44:20.670Z,0.90
2018-04-14T17:46:48.892Z,0.90
2018-04-14T17:49:17.184Z,0.83
2018-04-14T17:51:45.477Z,0.90
2018-04-14T17:54:14.544Z,0.93
2018-04-14T17:56:42.899Z,0.80
2018-04-14T17:59:11.173Z,0.83
2018-04-14T18:01:39.457Z,0.80
2018-04-14T18:04:07.737Z,1.20
2018-04-14T18:06:39.980Z,0.90
2018-04-14T18:09:08.289Z,0.70
2018-04-14T18:11:37.384Z,0.90
2018-04-14T18:14:05.746Z,0.70
2018-04-14T18:16:34.078Z,0.80
2018-04-14T18:19:03.106Z,1.07
2018-04-14T18:21:31.398Z,0.90
2018-04-14T18:23:59.744Z,0.70
2018-04-14T18:26:28.035Z,0.80
2018-04-14T18:28:56.324Z,0.90
2018-04-14T18:31:24.605Z,1.00
2018-04-14T18:33:52.926Z,0.90
2018-04-14T18:36:21.475Z,1.00
2018-04-14T18:38:49.758Z,1.00
2018-04-14T18:41:18.353Z,1.10
2018-04-14T18:43:47.411Z,1.00
2018-04-14T18:46:15.683Z,0.90
2018-04-14T18:48:43.959Z,1.10
2018-04-14T18:51:12.274Z,0.90
2018-04-14T18:53:41.323Z,0.90
2018-04-14T18:56:09.633Z,0.85
2018-04-14T18:58:38.784Z,1.12
2018-04-14T19:01:07.061Z,1.00
2018-04-14T19:03:35.327Z,3.55
2018-04-14T19:06:03.625Z,1.45
2018-04-14T19:08:31.906Z,0.93
2018-04-14T19:11:00.207Z,0.90
2018-04-14T19:13:29.263Z,1.00
2018-04-14T19:15:57.559Z,1.00
2018-04-14T19:18:26.624Z,1.40
2018-04-14T19:20:54.907Z,1.35
2018-04-14T19:23:23.487Z,1.62
2018-04-14T19:25:51.844Z,2.12
2018-04-14T19:28:20.342Z,2.22
2018-04-14T19:30:48.644Z,1.30
2018-04-14T19:33:16.939Z,1.30
2018-04-14T19:35:45.985Z,0.85
2018-04-14T19:38:14.271Z,0.88
2018-04-14T19:40:42.545Z,0.80
2018-04-14T19:43:11.222Z,0.85
2018-04-14T19:45:39.503Z,0.80
2018-04-14T19:48:07.811Z,0.90
2018-04-14T19:50:36.100Z,0.90
2018-04-14T19:53:05.165Z,0.98
2018-04-14T19:55:33.510Z,0.90
2018-04-14T19:58:01.866Z,1.12
2018-04-14T20:00:30.889Z,0.90
2018-04-14T20:02:59.188Z,1.10
2018-04-14T20:05:27.808Z,1.10
2018-04-14T20:07:56.835Z,1.55
2018-04-14T20:10:25.158Z,1.55
2018-04-14T20:12:54.213Z,1.00
2018-04-14T20:15:22.575Z,1.10
2018-04-14T20:17:50.866Z,1.02
2018-04-14T20:20:19.194Z,1.02
2018-04-14T20:22:48.521Z,0.90
2018-04-14T20:25:16.917Z,0.80
2018-04-14T20:27:45.191Z,1.02
2018-04-14T20:30:13.478Z,1.80
2018-04-14T20:32:41.747Z,1.02
2018-04-14T20:35:10.127Z,1.25
2018-04-14T20:37:38.402Z,1.00
2018-04-14T20:40:06.728Z,1.55
2018-04-14T20:42:35.779Z,1.00
2018-04-14T20:45:04.131Z,1.00
2018-04-14T20:47:32.955Z,0.77
2018-04-14T20:50:01.259Z,0.70
2018-04-14T20:52:30.350Z,0.60
2018-04-14T20:54:59.394Z,0.80
2018-04-14T20:57:27.663Z,0.90
2018-04-14T20:59:55.964Z,0.70
2018-04-14T21:02:24.281Z,0.70
2018-04-14T21:04:52.564Z,1.70
2018-04-14T21:07:20.861Z,0.77
2018-04-14T21:09:49.153Z,0.70
2018-04-14T21:12:17.441Z,0.70
2018-04-14T21:14:46.134Z,0.77
2018-04-14T21:17:15.220Z,0.90
2018-04-14T21:19:43.572Z,0.90
2018-04-14T21:22:11.837Z,0.85
2018-04-14T21:24:40.353Z,0.80
2018-04-14T21:27:08.623Z,0.90
2018-04-14T21:29:37.696Z,1.10
2018-04-14T21:32:05.982Z,1.00
2018-04-14T21:34:34.458Z,0.88
2018-04-14T21:37:02.743Z,1.00
2018-04-14T21:39:31.736Z,1.05
2018-04-14T21:41:59.991Z,0.90
2018-04-14T21:44:28.343Z,0.98
2018-04-14T21:46:56.860Z,1.08
2018-04-14T21:49:25.176Z,1.20
2018-04-14T21:51:53.450Z,1.37
2018-04-14T21:54:21.800Z,1.12
2018-04-14T21:56:50.214Z,0.93
2018-04-14T21:59:18.526Z,1.12
2018-04-14T22:01:46.801Z,1.08
2018-04-14T22:04:15.111Z,1.15
2018-04-14T22:06:43.439Z,1.15
2018-04-14T22:09:11.790Z,1.30
2018-04-14T22:11:40.889Z,1.15
2018-04-14T22:14:09.158Z,1.20
2018-04-14T22:16:37.475Z,1.00
2018-04-14T22:19:05.758Z,0.93
2018-04-14T22:21:34.062Z,0.85
2018-04-14T22:24:02.341Z,1.00
2018-04-14T22:26:30.632Z,1.20
2018-04-14T22:28:59.745Z,1.10
2018-04-14T22:31:28.026Z,1.20
2018-04-14T22:33:56.531Z,1.00
2018-04-14T22:36:24.998Z,1.05
2018-04-14T22:38:53.296Z,1.12
2018-04-14T22:41:21.596Z,1.17
2018-04-14T22:43:50.789Z,1.12
2018-04-14T22:46:19.074Z,1.10
2018-04-14T22:48:47.389Z,0.80
2018-04-14T22:51:15.685Z,1.40
2018-04-14T22:53:44.114Z,1.35
2018-04-14T22:56:13.160Z,1.00
2018-04-14T22:58:41.839Z,0.88
2018-04-14T23:01:10.122Z,0.90
2018-04-14T23:03:38.379Z,0.93
2018-04-14T23:06:06.683Z,0.85
2018-04-14T23:08:34.941Z,0.75
2018-04-14T23:11:03.214Z,1.10
2018-04-14T23:13:31.485Z,1.02
2018-04-14T23:15:59.777Z,1.15
2018-04-14T23:18:28.062Z,0.70
2018-04-14T23:20:56.325Z,1.30
2018-04-14T23:23:24.615Z,1.35
2018-04-14T23:25:52.951Z,1.60
2018-04-14T23:28:21.979Z,1.00
2018-04-14T23:30:50.286Z,0.93
2018-04-14T23:33:19.338Z,1.23
2018-04-14T23:35:47.629Z,1.17
2018-04-14T23:38:17.447Z,0.80
2018-04-14T23:40:46.519Z,1.00
2018-04-14T23:43:14.795Z,1.20
2018-04-14T23:45:43.057Z,1.10
2018-04-14T23:48:11.341Z,1.15
2018-04-14T23:50:39.613Z,1.23
2018-04-14T23:53:07.932Z,0.80
2018-04-14T23:55:36.988Z,0.80
2018-04-14T23:58:05.277Z,1.10
